Terminal Aerodrome Forecast
Issued by NWS Melbourne, FL

Home | Current Version | Previous Version | Text Only | Print | Product List | Glossary On
Versions: 1 2 3 4 5 6 7 8 9 10 11 12 13 14 15 16 17 18 19 20 21 22 23 24 25 26 27 28
000
FTUS42 KMLB 201100
TAFMCO
TAF
KMCO 201125Z 2012/2112 08007KT P6SM -RA SCT006 OVC025
      TEMPO 2012/2013 4SM RA BR OVC006
     FM201500 32004KT P6SM VCSH SCT022 BKN080 OVC150
     FM201800 28006KT P6SM VCSH SCT025 BKN040
      TEMPO 2018/2021 3SM SHRA BKN025
     FM210000 26004KT P6SM VCSH SCT025 BKN080=

USA.gov is the U.S. government's official web portal to all federal, state and local government web resources and services.